Time;durP1;ratioP1;P1;durP2;ratioP2;P2;SDS_P1;SDS_P2;PMS_P1;PMS_P2;Temp;Humidity;BMP_temperature;BMP_pressure;BME280_temperature;BME280_humidity;BME280_pressure;Samples;Min_cycle;Max_cycle;Signal;HPM_P1;HPM_P2
2023/05/02 00:00:35;;;;;;;20.25;13.65;;;15.10;95.80;;;;;;5015427;28;20057;-77
2023/05/02 00:03:02;;;;;;;20.00;13.73;;;15.10;95.80;;;;;;5014632;28;20030;-78
2023/05/02 00:05:28;;;;;;;20.80;13.23;;;15.10;96.00;;;;;;5014869;28;20053;-79
2023/05/02 00:07:54;;;;;;;19.73;12.60;;;15.00;96.20;;;;;;4997972;28;20065;-78
2023/05/02 00:10:19;;;;;;;17.00;11.77;;;14.90;96.40;;;;;;4997783;28;20513;-78
2023/05/02 00:12:45;;;;;;;14.07;9.23;;;14.70;96.70;;;;;;5015296;28;20034;-78
2023/05/02 00:15:11;;;;;;;19.75;12.40;;;14.60;96.90;;;;;;4997834;28;20080;-78
2023/05/02 00:17:40;;;;;;;15.82;10.82;;;14.60;97.10;;;;;;5014862;28;20041;-78
2023/05/02 00:20:10;;;;;;;15.15;9.80;;;14.60;97.30;;;;;;5015386;28;20030;-78
2023/05/02 00:22:36;;;;;;;14.30;9.15;;;14.70;97.20;;;;;;4997886;28;20100;-78
2023/05/02 00:25:02;;;;;;;15.20;9.23;;;14.70;96.70;;;;;;4981532;28;20475;-78
2023/05/02 00:27:29;;;;;;;13.82;8.70;;;14.60;96.50;;;;;;4981267;28;20045;-78
2023/05/02 00:29:55;;;;;;;12.13;7.72;;;14.50;96.40;;;;;;5015162;28;20041;-80
2023/05/02 00:32:20;;;;;;;11.90;7.75;;;14.50;96.50;;;;;;4981193;28;20030;-79
2023/05/02 00:34:46;;;;;;;15.20;8.45;;;14.60;96.60;;;;;;5014885;28;20034;-78
2023/05/02 00:37:12;;;;;;;12.48;8.70;;;14.60;96.50;;;;;;4997408;28;20025;-78
2023/05/02 00:39:38;;;;;;;11.85;7.68;;;14.60;96.50;;;;;;4997556;28;20135;-78
2023/05/02 00:42:03;;;;;;;11.90;7.20;;;14.60;96.40;;;;;;5014725;28;20034;-78
2023/05/02 00:44:29;;;;;;;15.32;8.80;;;14.70;96.50;;;;;;4997275;28;20042;-78
2023/05/02 00:46:55;;;;;;;11.77;7.35;;;14.70;96.20;;;;;;4964518;28;20033;-78
2023/05/02 00:49:21;;;;;;;10.70;7.45;;;14.70;96.20;;;;;;4997278;28;20122;-78
2023/05/02 00:51:47;;;;;;;13.98;9.10;;;14.70;96.10;;;;;;4997417;28;20470;-78
2023/05/02 00:54:13;;;;;;;11.32;8.02;;;14.70;96.20;;;;;;4997487;28;20049;-78
2023/05/02 00:56:39;;;;;;;14.48;8.93;;;14.70;96.10;;;;;;4996903;28;20033;-78
2023/05/02 00:59:07;;;;;;;14.15;8.77;;;14.70;96.30;;;;;;5014101;28;20112;-78
2023/05/02 01:02:06;;;;;;;11.43;7.65;;;14.60;96.30;;;;;;4997168;28;20467;-78
2023/05/02 01:04:38;;;;;;;12.82;7.55;;;14.70;96.40;;;;;;5014479;28;20421;-78
2023/05/02 01:07:28;;;;;;;13.27;8.25;;;14.70;96.30;;;;;;4996741;28;20026;-78
2023/05/02 01:10:21;;;;;;;13.20;8.18;;;14.80;96.40;;;;;;5014631;28;20038;-78
2023/05/02 01:13:01;;;;;;;14.80;8.70;;;14.80;96.40;;;;;;4996943;28;20064;-78
2023/05/02 01:15:27;;;;;;;13.85;7.97;;;14.80;96.30;;;;;;4996798;28;20053;-78
2023/05/02 01:17:55;;;;;;;13.18;8.35;;;14.80;96.40;;;;;;4996512;28;20463;-78
2023/05/02 01:20:25;;;;;;;14.45;8.20;;;14.80;96.40;;;;;;4980982;28;20419;-78
2023/05/02 01:22:52;;;;;;;13.10;8.40;;;14.90;96.40;;;;;;5013928;28;20022;-79
2023/05/02 01:25:30;;;;;;;9.52;7.03;;;14.90;96.50;;;;;;5014443;28;20075;-78
2023/05/02 01:28:30;;;;;;;13.80;8.02;;;14.90;96.60;;;;;;5014199;28;20065;-78
2023/05/02 01:30:56;;;;;;;13.38;8.10;;;15.00;96.60;;;;;;5013774;28;20033;-78
2023/05/02 01:33:24;;;;;;;12.10;8.25;;;14.90;96.80;;;;;;4980435;28;20041;-78
2023/05/02 01:35:51;;;;;;;17.13;10.50;;;14.90;97.00;;;;;;4996371;28;20026;-78
2023/05/02 01:38:19;;;;;;;17.50;9.70;;;14.90;97.20;;;;;;5014146;28;20034;-78
2023/05/02 01:40:46;;;;;;;12.68;8.32;;;14.80;97.40;;;;;;4996158;28;20053;-78
2023/05/02 01:43:14;;;;;;;13.85;9.75;;;14.80;97.60;;;;;;5013932;28;20113;-78
2023/05/02 01:45:43;;;;;;;16.98;10.35;;;14.70;98.10;;;;;;4996603;28;20026;-78
2023/05/02 01:48:10;;;;;;;15.60;9.20;;;14.70;97.90;;;;;;5013919;28;20026;-78
2023/05/02 01:50:38;;;;;;;18.48;9.48;;;14.70;98.20;;;;;;4996257;28;20157;-78
2023/05/02 01:53:06;;;;;;;13.13;7.95;;;14.60;98.60;;;;;;4996205;28;20026;-78
2023/05/02 01:55:35;;;;;;;16.40;9.27;;;14.60;98.70;;;;;;5013826;28;20064;-78
2023/05/02 01:58:01;;;;;;;17.17;9.40;;;14.60;98.90;;;;;;5013470;28;20394;-78
2023/05/02 02:00:30;;;;;;;17.15;8.07;;;14.50;99.10;;;;;;4995919;28;20037;-78
2023/05/02 02:02:57;;;;;;;13.77;8.30;;;14.60;99.20;;;;;;4996530;28;20037;-78
2023/05/02 02:05:24;;;;;;;11.80;6.45;;;14.60;99.20;;;;;;5013731;28;20037;-77
2023/05/02 02:07:50;;;;;;;12.38;7.65;;;14.60;99.20;;;;;;4996150;28;20111;-78
2023/05/02 02:10:16;;;;;;;10.82;7.50;;;14.50;99.40;;;;;;4996226;28;20431;-78
2023/05/02 02:12:49;;;;;;;12.93;6.75;;;14.50;99.70;;;;;;4996274;28;20037;-78
2023/05/02 02:15:15;;;;;;;11.30;5.40;;;14.50;99.90;;;;;;4996603;28;20057;-78
2023/05/02 02:18:04;;;;;;;15.88;6.82;;;14.50;99.90;;;;;;5013841;28;20030;-78
2023/05/02 02:20:31;;;;;;;12.68;5.85;;;14.50;99.90;;;;;;4980829;28;20034;-79
2023/05/02 02:22:59;;;;;;;11.05;5.75;;;14.50;99.90;;;;;;4995811;28;20463;-78
2023/05/02 02:25:26;;;;;;;9.10;4.70;;;14.50;99.90;;;;;;4996512;28;20040;-78
2023/05/02 02:27:52;;;;;;;11.73;4.15;;;14.40;99.90;;;;;;5015874;28;20492;-78
2023/05/02 02:30:18;;;;;;;9.95;4.47;;;14.40;99.90;;;;;;5017198;28;20061;-78
2023/05/02 02:32:43;;;;;;;12.13;3.40;;;14.30;99.90;;;;;;5017454;28;20066;-77
2023/05/02 02:35:09;;;;;;;7.85;2.40;;;14.20;99.90;;;;;;4999761;28;20026;-77
2023/05/02 02:37:44;;;;;;;11.10;2.50;;;14.20;99.90;;;;;;4999975;28;20025;-77
2023/05/02 02:40:34;;;;;;;8.45;2.00;;;14.30;99.90;;;;;;5000274;28;20084;-77
2023/05/02 02:43:22;;;;;;;11.38;2.35;;;14.30;99.90;;;;;;5017065;28;20030;-78
2023/05/02 02:46:34;;;;;;;12.85;2.53;;;14.30;99.60;;;;;;5017647;28;20443;-78
2023/05/02 02:49:26;;;;;;;8.18;1.77;;;14.10;99.60;;;;;;4969378;28;20088;-78
2023/05/02 02:51:59;;;;;;;10.20;2.20;;;14.20;99.50;;;;;;5017189;28;20375;-77
2023/05/02 02:54:30;;;;;;;5.75;1.60;;;14.30;99.30;;;;;;5016844;28;20249;-77
2023/05/02 02:57:23;;;;;;;12.18;2.05;;;14.40;99.10;;;;;;5016474;28;20030;-77
2023/05/02 02:59:55;;;;;;;7.63;1.48;;;14.40;98.80;;;;;;5016580;28;20088;-78
2023/05/02 03:02:27;;;;;;;4.60;1.35;;;14.40;98.80;;;;;;5016966;28;20410;-78
2023/05/02 03:04:53;;;;;;;8.95;1.30;;;14.50;98.70;;;;;;4998692;28;20084;-78
2023/05/02 03:07:19;;;;;;;4.53;1.50;;;14.60;98.30;;;;;;4998972;28;20395;-77
2023/05/02 03:09:47;;;;;;;8.05;1.30;;;14.60;98.00;;;;;;4983288;28;20038;-77
2023/05/02 03:12:13;;;;;;;9.35;1.30;;;14.60;97.70;;;;;;4983073;28;20117;-78
2023/05/02 03:14:39;;;;;;;8.70;1.40;;;14.60;97.70;;;;;;4999020;28;20436;-78
2023/05/02 03:17:07;;;;;;;5.80;1.35;;;14.50;97.30;;;;;;5016328;28;20022;-78
2023/05/02 03:19:33;;;;;;;3.08;1.02;;;14.50;97.40;;;;;;4998647;28;20116;-78
2023/05/02 03:21:58;;;;;;;6.63;1.20;;;14.50;97.50;;;;;;5016014;28;20463;-78
2023/05/02 03:24:26;;;;;;;6.40;1.40;;;14.60;97.30;;;;;;4982406;28;20053;-78
2023/05/02 03:26:58;;;;;;;6.88;1.10;;;14.70;97.00;;;;;;4998275;28;20032;-78
2023/05/02 03:29:25;;;;;;;7.18;1.35;;;14.60;96.60;;;;;;4998234;28;20063;-77
2023/05/02 03:31:50;;;;;;;6.50;1.15;;;14.50;96.60;;;;;;4998960;28;20121;-77
2023/05/02 03:34:16;;;;;;;7.00;1.30;;;14.50;96.30;;;;;;4998375;28;20108;-78
2023/05/02 03:36:42;;;;;;;9.48;1.30;;;14.40;96.30;;;;;;5015990;28;20034;-78
2023/05/02 03:39:08;;;;;;;3.17;0.80;;;14.30;96.00;;;;;;4998145;28;20037;-78
2023/05/02 03:41:34;;;;;;;10.43;1.38;;;14.20;96.30;;;;;;4981852;28;20034;-78
2023/05/02 03:43:59;;;;;;;4.07;1.00;;;14.20;96.40;;;;;;4982701;28;20064;-78
2023/05/02 03:46:25;;;;;;;3.75;1.20;;;14.10;96.30;;;;;;4998054;28;20088;-78
2023/05/02 03:48:51;;;;;;;6.20;1.10;;;14.10;96.40;;;;;;4998159;28;20042;-78
2023/05/02 03:51:16;;;;;;;4.82;1.00;;;14.20;96.50;;;;;;4981985;28;20033;-78
2023/05/02 03:53:42;;;;;;;6.65;1.63;;;14.30;96.20;;;;;;5015717;28;20022;-77
2023/05/02 03:56:08;;;;;;;9.38;0.98;;;14.30;96.10;;;;;;4998097;28;20030;-78
2023/05/02 03:58:37;;;;;;;5.70;1.00;;;14.40;96.00;;;;;;5015767;28;20037;-78
2023/05/02 04:01:03;;;;;;;5.10;1.20;;;14.40;96.00;;;;;;4998374;28;20022;-78
2023/05/02 04:03:28;;;;;;;9.20;1.17;;;14.50;95.80;;;;;;4998498;28;20034;-78
2023/05/02 04:05:54;;;;;;;10.55;1.45;;;14.40;95.30;;;;;;4997967;28;20026;-78
2023/05/02 04:08:20;;;;;;;3.92;0.80;;;14.40;95.40;;;;;;4965579;28;20060;-78
2023/05/02 04:10:46;;;;;;;5.18;0.95;;;14.40;95.50;;;;;;5015341;28;20033;-78
2023/05/02 04:13:11;;;;;;;3.83;0.70;;;14.40;95.50;;;;;;4997714;28;20034;-78
2023/05/02 04:15:37;;;;;;;7.85;1.35;;;14.40;95.40;;;;;;4998019;28;20037;-78
2023/05/02 04:18:03;;;;;;;8.35;1.02;;;14.50;95.40;;;;;;5015193;28;20045;-78
2023/05/02 04:20:29;;;;;;;3.33;0.68;;;14.50;95.00;;;;;;4982255;28;20512;-78
2023/05/02 04:22:55;;;;;;;6.18;0.80;;;14.40;95.00;;;;;;4997393;28;20030;-78
2023/05/02 04:25:20;;;;;;;4.32;0.93;;;14.50;95.00;;;;;;5015061;28;20115;-78
2023/05/02 04:27:46;;;;;;;5.40;0.90;;;14.50;95.10;;;;;;4997817;28;20080;-78
2023/05/02 04:30:12;;;;;;;3.75;0.80;;;14.50;95.00;;;;;;4998397;28;20581;-78
2023/05/02 04:32:38;;;;;;;4.25;0.65;;;14.60;95.10;;;;;;4981757;28;20536;-78
2023/05/02 04:35:04;;;;;;;3.63;0.90;;;14.70;95.20;;;;;;5015179;28;20050;-79
2023/05/02 04:37:30;;;;;;;6.80;0.90;;;14.80;94.80;;;;;;5015131;28;20026;-78
2023/05/02 04:39:56;;;;;;;7.07;1.05;;;14.70;94.30;;;;;;4996922;28;20046;-78
2023/05/02 04:42:22;;;;;;;5.00;0.82;;;14.50;94.00;;;;;;4980906;28;20068;-77
2023/05/02 04:44:48;;;;;;;6.82;1.95;;;14.50;94.30;;;;;;5014612;28;20030;-79
2023/05/02 04:47:14;;;;;;;8.45;1.00;;;14.40;93.00;;;;;;4997534;28;20034;-79
2023/05/02 04:49:40;;;;;;;2.75;0.52;;;14.30;93.20;;;;;;4996121;28;20487;-78
2023/05/02 04:52:06;;;;;;;7.80;0.60;;;14.30;93.40;;;;;;5014506;28;20030;-78
2023/05/02 04:54:33;;;;;;;6.72;0.88;;;14.30;92.80;;;;;;4996885;28;20037;-78
2023/05/02 04:56:58;;;;;;;4.32;0.88;;;14.10;92.60;;;;;;4997033;28;20044;-78
2023/05/02 04:59:24;;;;;;;6.25;0.82;;;14.00;93.00;;;;;;4981033;28;20041;-78
2023/05/02 05:01:50;;;;;;;7.93;1.50;;;14.00;92.90;;;;;;4996924;28;20030;-78
2023/05/02 05:04:15;;;;;;;5.85;0.85;;;14.00;92.80;;;;;;4981224;28;20060;-78
2023/05/02 05:06:41;;;;;;;8.65;0.80;;;13.90;92.70;;;;;;5014330;28;20037;-78
2023/05/02 05:09:07;;;;;;;6.55;0.70;;;13.80;92.40;;;;;;4997348;28;20492;-77
2023/05/02 05:11:33;;;;;;;5.97;0.90;;;13.80;92.00;;;;;;5014579;28;20026;-77
2023/05/02 05:13:59;;;;;;;7.43;0.70;;;13.70;92.20;;;;;;4996616;28;20425;-78
2023/05/02 05:16:25;;;;;;;12.07;1.27;;;13.50;92.10;;;;;;5014134;28;20383;-78
2023/05/02 05:18:52;;;;;;;6.25;0.60;;;13.50;92.30;;;;;;4964031;28;20049;-77
2023/05/02 05:21:18;;;;;;;5.38;0.80;;;13.50;92.10;;;;;;4996626;28;20045;-77
2023/05/02 05:23:44;;;;;;;9.35;1.23;;;13.60;92.40;;;;;;5014154;28;20022;-77
2023/05/02 05:26:15;;;;;;;6.85;1.27;;;13.40;92.20;;;;;;4980025;28;20050;-78
2023/05/02 05:28:41;;;;;;;7.00;1.23;;;13.40;92.10;;;;;;5014098;28;20027;-78
2023/05/02 05:31:11;;;;;;;8.00;1.23;;;13.20;92.00;;;;;;4996581;28;20113;-78
2023/05/02 05:33:38;;;;;;;6.47;0.90;;;13.20;91.90;;;;;;5013890;28;20033;-78
2023/05/02 05:36:11;;;;;;;6.50;1.00;;;13.20;92.20;;;;;;5013993;28;20025;-78
2023/05/02 05:38:37;;;;;;;9.13;1.20;;;13.30;92.40;;;;;;4996248;28;20042;-78
2023/05/02 05:41:04;;;;;;;10.65;1.63;;;13.40;92.60;;;;;;5013946;28;20033;-78
2023/05/02 05:43:30;;;;;;;6.30;1.00;;;13.40;91.90;;;;;;5013935;28;20113;-78
2023/05/02 05:46:46;;;;;;;8.35;1.30;;;13.30;92.70;;;;;;5014387;28;20454;-77
2023/05/02 05:49:20;;;;;;;6.13;1.02;;;13.40;92.70;;;;;;5013947;28;20475;-77
2023/05/02 05:51:46;;;;;;;8.10;1.38;;;13.60;92.70;;;;;;4995926;28;20057;-77
2023/05/02 05:54:12;;;;;;;8.13;1.38;;;13.70;92.40;;;;;;5013783;28;20030;-77
2023/05/02 05:56:37;;;;;;;10.35;1.65;;;13.60;92.10;;;;;;5013999;28;20108;-77
2023/05/02 05:59:03;;;;;;;9.65;1.30;;;13.60;92.20;;;;;;4979896;28;20129;-78
2023/05/02 06:01:28;;;;;;;8.00;1.10;;;13.40;91.90;;;;;;4997776;28;20375;-77
2023/05/02 06:03:54;;;;;;;7.88;1.17;;;13.20;91.80;;;;;;5000139;28;20478;-78
2023/05/02 06:06:20;;;;;;;11.65;1.38;;;13.10;92.00;;;;;;5000002;28;20482;-78
2023/05/02 06:08:45;;;;;;;6.18;1.42;;;12.80;91.20;;;;;;4967574;28;20045;-77
2023/05/02 06:11:11;;;;;;;15.85;1.85;;;12.70;91.70;;;;;;4983470;28;20037;-78
2023/05/02 06:13:37;;;;;;;14.82;1.90;;;12.70;91.80;;;;;;4999877;28;20026;-78
2023/05/02 06:16:04;;;;;;;19.80;2.50;;;12.50;92.00;;;;;;4999829;28;20025;-77
2023/05/02 06:18:29;;;;;;;11.48;1.80;;;12.20;92.30;;;;;;4984115;28;20113;-77
2023/05/02 06:20:55;;;;;;;9.20;1.33;;;12.20;92.70;;;;;;4999684;28;20026;-77
2023/05/02 06:23:21;;;;;;;11.63;2.13;;;12.30;92.70;;;;;;5017343;28;20045;-77
2023/05/02 06:25:46;;;;;;;15.35;2.35;;;12.40;92.30;;;;;;4999114;28;20073;-77
2023/05/02 06:28:12;;;;;;;12.40;2.20;;;12.30;92.30;;;;;;4983094;28;20156;-77
2023/05/02 06:30:38;;;;;;;11.70;1.80;;;12.20;92.30;;;;;;5016907;28;20061;-77
2023/05/02 06:33:05;;;;;;;10.85;2.13;;;12.20;92.60;;;;;;4967323;28;20099;-78
2023/05/02 06:35:30;;;;;;;14.07;2.15;;;12.30;92.80;;;;;;4999468;28;20041;-79
2023/05/02 06:37:56;;;;;;;6.28;1.17;;;12.40;92.80;;;;;;4999361;28;20470;-77
2023/05/02 06:40:21;;;;;;;9.75;1.73;;;12.70;93.30;;;;;;4967112;28;20492;-77
2023/05/02 06:42:47;;;;;;;13.13;2.13;;;12.90;92.90;;;;;;4999515;28;20037;-77
2023/05/02 06:45:13;;;;;;;16.40;2.10;;;13.10;92.50;;;;;;4967588;28;20033;-77
2023/05/02 06:47:39;;;;;;;14.45;2.85;;;13.10;92.40;;;;;;4999426;28;20367;-78
2023/05/02 06:50:05;;;;;;;11.43;1.77;;;13.20;91.90;;;;;;4982979;28;20381;-79
2023/05/02 06:52:30;;;;;;;12.32;2.10;;;13.10;92.00;;;;;;4999047;28;20030;-78
2023/05/02 06:54:56;;;;;;;14.43;1.50;;;13.20;91.70;;;;;;4983013;28;20497;-77
2023/05/02 06:57:23;;;;;;;15.57;2.05;;;13.30;91.70;;;;;;4999130;28;20121;-78
2023/05/02 06:59:49;;;;;;;5.82;1.23;;;13.30;90.70;;;;;;5016647;28;20049;-78
2023/05/02 07:02:15;;;;;;;10.32;1.95;;;13.30;90.80;;;;;;4983260;28;20034;-79
2023/05/02 07:04:40;;;;;;;7.63;1.80;;;13.30;90.50;;;;;;4999094;28;20458;-78
2023/05/02 07:07:06;;;;;;;13.50;2.13;;;13.40;91.20;;;;;;4998897;28;20121;-78
2023/05/02 07:09:31;;;;;;;13.77;1.95;;;13.40;89.60;;;;;;4998943;28;20320;-79
2023/05/02 07:11:57;;;;;;;9.90;1.42;;;13.10;89.10;;;;;;4982681;28;20030;-78
2023/05/02 07:14:23;;;;;;;12.75;2.35;;;12.90;90.20;;;;;;4981894;28;20034;-78
2023/05/02 07:16:48;;;;;;;13.40;1.83;;;13.00;90.10;;;;;;5016609;28;20109;-78
2023/05/02 07:19:14;;;;;;;11.63;1.60;;;13.10;90.20;;;;;;4998708;28;20241;-78
2023/05/02 07:21:40;;;;;;;10.82;1.60;;;13.00;90.00;;;;;;4998711;28;20466;-78
2023/05/02 07:24:06;;;;;;;11.57;1.65;;;12.90;88.70;;;;;;5016227;28;20124;-78
2023/05/02 07:26:31;;;;;;;9.88;1.33;;;12.70;89.40;;;;;;4995244;28;20058;-79
2023/05/02 07:28:57;;;;;;;12.60;1.85;;;12.60;88.70;;;;;;4996841;28;20038;-78
2023/05/02 07:31:22;;;;;;;7.45;1.30;;;12.30;89.50;;;;;;4995037;28;20089;-78
2023/05/02 07:33:48;;;;;;;6.80;1.50;;;12.40;90.20;;;;;;4995207;28;20027;-78
2023/05/02 07:36:14;;;;;;;10.27;1.38;;;12.70;90.60;;;;;;4995014;28;20092;-78
2023/05/02 07:38:39;;;;;;;8.82;1.40;;;12.80;89.50;;;;;;4996263;28;20112;-78
2023/05/02 07:41:05;;;;;;;6.50;1.20;;;12.90;87.90;;;;;;4996322;28;20113;-78
2023/05/02 07:43:31;;;;;;;11.10;1.58;;;12.90;88.30;;;;;;4995081;28;20030;-79
2023/05/02 07:45:57;;;;;;;9.15;1.48;;;12.90;86.20;;;;;;4994762;28;20037;-78
2023/05/02 07:48:22;;;;;;;7.60;1.70;;;12.70;86.60;;;;;;4979199;28;20186;-78
2023/05/02 07:50:48;;;;;;;8.65;1.73;;;12.50;85.60;;;;;;4996380;28;20046;-78
2023/05/02 07:53:14;;;;;;;6.40;1.30;;;12.30;85.60;;;;;;4995486;28;20034;-78
2023/05/02 07:55:39;;;;;;;9.93;1.40;;;12.40;86.70;;;;;;4995154;28;20477;-78
2023/05/02 07:58:05;;;;;;;11.38;1.20;;;12.30;86.00;;;;;;4978515;28;20050;-78
2023/05/02 08:00:31;;;;;;;9.38;1.40;;;12.40;86.50;;;;;;4994500;28;20033;-79
2023/05/02 08:02:56;;;;;;;7.18;1.20;;;12.40;87.60;;;;;;4978928;28;20121;-78
2023/05/02 08:05:22;;;;;;;8.05;1.25;;;12.50;87.40;;;;;;4994619;28;20034;-77
2023/05/02 08:07:48;;;;;;;4.97;1.10;;;12.60;87.30;;;;;;4994847;28;20090;-77
2023/05/02 08:10:13;;;;;;;8.25;1.20;;;12.70;87.80;;;;;;4995770;28;20038;-78
2023/05/02 08:12:40;;;;;;;7.57;1.10;;;12.90;88.40;;;;;;4994402;28;20035;-78
2023/05/02 08:15:09;;;;;;;9.13;1.30;;;12.90;85.90;;;;;;4994618;28;20030;-78
2023/05/02 08:17:34;;;;;;;7.95;1.15;;;12.80;86.20;;;;;;4978447;28;20035;-78
2023/05/02 08:20:00;;;;;;;5.15;0.93;;;12.70;85.90;;;;;;4995728;28;20042;-78
2023/05/02 08:22:26;;;;;;;9.85;1.80;;;12.60;86.20;;;;;;4994329;28;20050;-78
2023/05/02 08:24:51;;;;;;;6.88;0.93;;;12.70;86.80;;;;;;4995381;28;20035;-78
2023/05/02 08:27:17;;;;;;;4.05;0.82;;;12.70;87.90;;;;;;4997565;28;20037;-78
2023/05/02 08:29:42;;;;;;;10.18;1.00;;;12.80;88.10;;;;;;4965043;28;20041;-77
2023/05/02 08:32:08;;;;;;;6.75;1.02;;;13.00;86.80;;;;;;4997887;28;20026;-78
2023/05/02 08:34:34;;;;;;;4.55;0.52;;;13.10;86.10;;;;;;4998224;28;20050;-77
2023/05/02 08:36:59;;;;;;;3.50;0.43;;;13.20;84.80;;;;;;5015120;28;20026;-78
2023/05/02 08:39:25;;;;;;;7.03;0.63;;;13.40;85.30;;;;;;4980940;28;20037;-78
2023/05/02 08:41:51;;;;;;;4.15;0.52;;;13.50;83.70;;;;;;4997251;28;20038;-78
2023/05/02 08:44:17;;;;;;;5.40;0.80;;;13.60;83.10;;;;;;5015007;28;20030;-79
2023/05/02 08:46:43;;;;;;;4.53;0.55;;;13.90;81.20;;;;;;4997888;28;20165;-79
2023/05/02 08:49:10;;;;;;;5.18;0.70;;;13.70;79.00;;;;;;4997074;28;20045;-78
2023/05/02 08:51:36;;;;;;;6.35;0.65;;;13.50;79.10;;;;;;4996990;28;20034;-78
2023/05/02 08:54:03;;;;;;;5.13;0.70;;;13.60;79.90;;;;;;5014612;28;20119;-78
2023/05/02 08:56:28;;;;;;;3.60;0.40;;;13.60;77.90;;;;;;5014505;28;20034;-79
2023/05/02 08:58:54;;;;;;;8.82;0.95;;;13.50;76.30;;;;;;5014217;28;20042;-79
2023/05/02 09:01:23;;;;;;;3.85;0.40;;;13.50;75.60;;;;;;4996803;28;20466;-77
2023/05/02 09:03:49;;;;;;;4.10;0.40;;;13.50;74.70;;;;;;5014403;28;20028;-78
2023/05/02 09:06:17;;;;;;;5.82;0.80;;;13.50;74.00;;;;;;4981244;28;20117;-78
2023/05/02 09:08:45;;;;;;;1.95;0.35;;;13.60;74.80;;;;;;5014313;28;20034;-79
2023/05/02 09:11:12;;;;;;;5.22;0.63;;;13.70;75.50;;;;;;5014037;28;20025;-78
2023/05/02 09:13:42;;;;;;;6.93;1.55;;;13.50;73.60;;;;;;5014278;28;20025;-76
2023/05/02 09:16:10;;;;;;;3.58;0.52;;;13.30;73.60;;;;;;5013989;28;20026;-79
2023/05/02 09:18:47;;;;;;;8.70;0.82;;;13.20;75.00;;;;;;4996405;28;20035;-78
2023/05/02 09:21:15;;;;;;;3.83;0.70;;;13.10;72.60;;;;;;4997180;28;20114;-77
2023/05/02 09:23:40;;;;;;;4.10;0.70;;;13.20;74.60;;;;;;4996506;28;20411;-77
2023/05/02 09:26:13;;;;;;;6.70;0.93;;;13.40;74.40;;;;;;5013708;28;20077;-79
2023/05/02 09:28:41;;;;;;;3.63;0.75;;;13.60;73.60;;;;;;5014362;28;20064;-78
2023/05/02 09:31:08;;;;;;;6.18;0.60;;;13.80;74.20;;;;;;5014196;28;20486;-78
2023/05/02 09:33:34;;;;;;;4.53;0.60;;;13.90;71.80;;;;;;5013711;28;20022;-78
2023/05/02 09:36:00;;;;;;;11.60;2.45;;;14.00;72.00;;;;;;4979865;28;20130;-78
2023/05/02 09:38:26;;;;;;;4.90;0.82;;;13.80;69.20;;;;;;5013882;28;20121;-78
2023/05/02 09:40:55;;;;;;;6.38;1.17;;;13.70;70.90;;;;;;4997181;28;20455;-77
2023/05/02 09:43:21;;;;;;;6.72;0.90;;;13.90;71.40;;;;;;5013666;28;20471;-78
2023/05/02 09:46:04;;;;;;;5.13;0.60;;;14.10;71.20;;;;;;4980251;28;20125;-77
2023/05/02 09:48:31;;;;;;;5.82;0.50;;;14.40;68.50;;;;;;5014414;28;20034;-77
2023/05/02 09:50:57;;;;;;;4.15;0.90;;;14.60;67.20;;;;;;5013788;28;20038;-78
2023/05/02 09:53:26;;;;;;;6.82;0.85;;;14.70;65.70;;;;;;5013888;28;20026;-78
2023/05/02 09:56:03;;;;;;;4.40;0.70;;;14.70;65.30;;;;;;5014256;28;20455;-77
2023/05/02 09:58:29;;;;;;;4.95;0.80;;;14.70;66.70;;;;;;4996578;28;20037;-78
2023/05/02 10:00:56;;;;;;;5.45;0.60;;;14.60;65.80;;;;;;5013674;28;20033;-78
2023/05/02 10:03:25;;;;;;;4.75;0.63;;;14.80;65.80;;;;;;4996035;28;20466;-78
2023/05/02 10:05:53;;;;;;;3.45;0.40;;;15.00;68.00;;;;;;4996064;28;20033;-78
2023/05/02 10:08:19;;;;;;;3.55;0.80;;;15.30;66.10;;;;;;5013976;28;20053;-78
2023/05/02 10:10:54;;;;;;;5.40;0.40;;;15.60;65.10;;;;;;5013604;28;20018;-78
2023/05/02 10:13:23;;;;;;;3.30;0.60;;;15.80;60.80;;;;;;5013422;28;20111;-79
2023/05/02 10:15:54;;;;;;;4.03;0.65;;;15.80;61.10;;;;;;4996354;28;20028;-78
2023/05/02 10:18:27;;;;;;;5.38;0.68;;;15.80;61.80;;;;;;5013550;28;20390;-79
2023/05/02 10:21:06;;;;;;;7.22;1.02;;;16.00;62.10;;;;;;5013946;28;20049;-79
2023/05/02 10:23:33;;;;;;;3.03;0.70;;;16.10;59.80;;;;;;5013622;28;20041;-80
2023/05/02 10:25:59;;;;;;;5.95;0.60;;;15.90;60.40;;;;;;5013402;28;20475;-79
2023/05/02 10:28:29;;;;;;;2.95;0.52;;;15.90;60.20;;;;;;4995828;28;20026;-78
2023/05/02 10:30:57;;;;;;;4.97;0.60;;;15.60;60.60;;;;;;5013466;28;20096;-78
2023/05/02 10:33:23;;;;;;;3.13;0.60;;;15.70;60.80;;;;;;4996353;28;20026;-78
2023/05/02 10:35:49;;;;;;;5.35;0.82;;;15.80;59.90;;;;;;5013621;28;20030;-79
2023/05/02 10:38:19;;;;;;;4.68;0.95;;;15.70;59.90;;;;;;5013393;28;20124;-78
2023/05/02 10:40:59;;;;;;;5.40;0.60;;;15.50;60.90;;;;;;5013333;28;20026;-78
2023/05/02 10:43:27;;;;;;;4.07;0.73;;;15.30;59.70;;;;;;4996744;28;20537;-78
2023/05/02 10:45:53;;;;;;;4.18;1.20;;;15.20;60.90;;;;;;5013475;28;20025;-78
2023/05/02 10:48:24;;;;;;;7.72;0.80;;;15.40;62.20;;;;;;5014233;28;20030;-79
2023/05/02 10:50:55;;;;;;;3.85;0.75;;;15.70;61.00;;;;;;5000147;28;20455;-79
2023/05/02 10:53:35;;;;;;;9.02;1.25;;;15.90;57.70;;;;;;5017149;28;20033;-78
2023/05/02 10:56:14;;;;;;;3.70;0.63;;;16.00;59.20;;;;;;4999769;28;20026;-78
2023/05/02 10:58:41;;;;;;;5.65;0.90;;;15.90;58.60;;;;;;5016887;28;20088;-78
2023/05/02 11:01:30;;;;;;;4.85;0.70;;;15.90;58.00;;;;;;5016564;28;20034;-78
2023/05/02 11:03:58;;;;;;;4.35;0.80;;;15.70;59.40;;;;;;5004870;28;20088;-78
2023/05/02 11:06:28;;;;;;;4.32;0.60;;;16.00;60.00;;;;;;5016768;28;20034;-78
2023/05/02 11:09:20;;;;;;;3.45;0.70;;;16.20;59.20;;;;;;5016496;28;20057;-78
2023/05/02 11:11:47;;;;;;;3.67;0.68;;;16.30;57.40;;;;;;5005578;28;20053;-79
2023/05/02 11:14:32;;;;;;;3.83;0.57;;;16.20;56.50;;;;;;5015999;28;20018;-78
2023/05/02 11:16:58;;;;;;;5.07;0.90;;;16.10;58.00;;;;;;4999510;28;20045;-78
2023/05/02 11:19:25;;;;;;;3.60;0.68;;;16.20;59.60;;;;;;5016203;28;20030;-78
2023/05/02 11:21:53;;;;;;;6.00;0.77;;;16.50;58.30;;;;;;4998530;28;20034;-77
2023/05/02 11:24:49;;;;;;;4.10;0.55;;;16.60;58.30;;;;;;5015948;28;20038;-78
2023/05/02 11:27:32;;;;;;;5.82;1.17;;;17.00;58.70;;;;;;5012467;28;20038;-78
2023/05/02 11:29:59;;;;;;;4.72;0.77;;;17.30;58.50;;;;;;5016172;28;20497;-78
2023/05/02 11:32:48;;;;;;;5.63;1.55;;;17.10;55.70;;;;;;4998353;28;20026;-79
2023/05/02 11:35:21;;;;;;;4.22;0.98;;;16.90;57.40;;;;;;5000152;28;20434;-78
2023/05/02 11:37:57;;;;;;;6.43;1.00;;;16.70;55.00;;;;;;5015979;28;20084;-78
2023/05/02 11:40:25;;;;;;;5.45;1.15;;;16.70;56.90;;;;;;5015924;28;20038;-78
2023/05/02 11:42:52;;;;;;;5.18;0.85;;;17.00;56.40;;;;;;5015797;28;20029;-79
2023/05/02 11:45:19;;;;;;;6.53;0.98;;;17.10;55.40;;;;;;5015997;28;20094;-77
2023/05/02 11:47:47;;;;;;;5.05;1.25;;;17.30;56.40;;;;;;4982635;28;20129;-77
2023/05/02 11:50:13;;;;;;;3.67;0.60;;;17.40;56.70;;;;;;4982345;28;20126;-78
2023/05/02 11:52:41;;;;;;;5.20;0.93;;;17.50;55.60;;;;;;5015709;28;20520;-78
2023/05/02 11:55:12;;;;;;;4.20;0.90;;;17.60;54.70;;;;;;4998140;28;20048;-78
2023/05/02 11:57:38;;;;;;;4.38;1.33;;;17.70;54.20;;;;;;4998824;28;20088;-78
2023/05/02 12:00:05;;;;;;;7.18;1.00;;;17.70;54.00;;;;;;4982055;28;20041;-78
2023/05/02 12:02:37;;;;;;;6.88;1.10;;;17.80;54.10;;;;;;5015441;28;20033;-78
2023/05/02 12:05:07;;;;;;;3.65;0.80;;;17.90;54.20;;;;;;4981518;28;20064;-79
2023/05/02 12:07:44;;;;;;;9.68;1.55;;;18.10;55.60;;;;;;5015665;28;20040;-80
2023/05/02 12:10:12;;;;;;;7.65;0.95;;;18.20;54.30;;;;;;5015605;28;20125;-79
2023/05/02 12:12:39;;;;;;;3.80;0.90;;;18.10;54.10;;;;;;4997610;28;20061;-79
2023/05/02 12:15:07;;;;;;;7.60;1.17;;;18.00;53.70;;;;;;5015526;28;20061;-79
2023/05/02 12:17:41;;;;;;;3.47;0.80;;;18.00;53.00;;;;;;5015075;28;20120;-79
2023/05/02 12:20:08;;;;;;;5.97;0.95;;;18.00;53.10;;;;;;5015456;28;20467;-79
2023/05/02 12:22:35;;;;;;;4.68;0.80;;;18.10;55.10;;;;;;5015512;28;20034;-80
2023/05/02 12:25:02;;;;;;;7.32;0.80;;;18.20;54.90;;;;;;4997342;28;20120;-79
2023/05/02 12:27:28;;;;;;;4.63;0.82;;;18.20;52.00;;;;;;4981487;28;20034;-79
2023/05/02 12:29:56;;;;;;;6.28;1.20;;;18.30;52.60;;;;;;4997365;28;20034;-79
2023/05/02 12:32:30;;;;;;;4.85;1.00;;;18.50;52.80;;;;;;4996984;28;20072;-79
2023/05/02 12:34:57;;;;;;;5.13;1.23;;;18.50;51.00;;;;;;4981328;28;20498;-79
2023/05/02 12:37:24;;;;;;;6.40;1.55;;;18.50;51.90;;;;;;5015134;28;20079;-79
2023/05/02 12:39:52;;;;;;;4.72;1.15;;;18.60;52.40;;;;;;5014706;28;20037;-78
2023/05/02 12:42:20;;;;;;;6.20;1.10;;;18.60;51.60;;;;;;5014723;28;20022;-79
2023/05/02 12:44:47;;;;;;;3.40;1.10;;;18.60;51.00;;;;;;5014721;28;20034;-78
2023/05/02 12:47:15;;;;;;;6.30;1.10;;;18.70;50.80;;;;;;4997033;28;20028;-79
2023/05/02 12:49:57;;;;;;;6.50;1.27;;;18.80;50.50;;;;;;4997343;28;20084;-78